createdAt,value
2022-12-31T00:01:06.664Z,98664.95
2022-12-31T00:03:35.179Z,98668.42
2022-12-31T00:06:13.977Z,98665.92
2022-12-31T00:08:43.709Z,98660.64
2022-12-31T00:11:12.037Z,98661.46
2022-12-31T00:13:40.855Z,98669.73
2022-12-31T00:16:15.586Z,98676.81
2022-12-31T00:18:46.182Z,98681.39
2022-12-31T00:21:15.251Z,98680.80
2022-12-31T00:23:43.235Z,98684.89
2022-12-31T00:26:14.337Z,98689.27
2022-12-31T00:28:43.020Z,98695.70
2022-12-31T00:31:12.776Z,98694.05
2022-12-31T00:33:41.503Z,98693.45
2022-12-31T00:36:18.170Z,98694.31
2022-12-31T00:38:48.485Z,98696.17
2022-12-31T00:41:18.124Z,98696.25
2022-12-31T00:43:46.698Z,98697.86
2022-12-31T00:46:15.680Z,98702.58
2022-12-31T00:48:43.944Z,98704.38
2022-12-31T00:51:15.432Z,98704.65
2022-12-31T00:53:44.299Z,98703.20
2022-12-31T00:56:19.618Z,98702.50
2022-12-31T00:58:48.700Z,98700.20
2022-12-31T01:01:28.934Z,98702.35
2022-12-31T01:04:10.594Z,98700.33
2022-12-31T01:06:39.700Z,98697.92
2022-12-31T01:09:08.783Z,98700.08
2022-12-31T01:11:37.378Z,98701.99
2022-12-31T01:14:10.090Z,98700.59
2022-12-31T01:16:53.818Z,98702.60
2022-12-31T01:19:25.602Z,98699.89
2022-12-31T01:21:54.183Z,98703.91
2022-12-31T01:24:22.712Z,98706.61
2022-12-31T01:26:51.587Z,98708.68
2022-12-31T01:29:19.701Z,98706.41
2022-12-31T01:31:47.680Z,98704.89
2022-12-31T01:34:15.627Z,98712.87
2022-12-31T01:36:43.627Z,98713.55
2022-12-31T01:39:12.447Z,98712.38
2022-12-31T01:41:44.129Z,98708.14
2022-12-31T01:44:12.010Z,98701.43
2022-12-31T01:46:52.006Z,98701.54
2022-12-31T01:49:45.364Z,98706.26
2022-12-31T01:52:18.120Z,98706.05
2022-12-31T01:54:51.771Z,98714.05
2022-12-31T01:57:21.241Z,98713.32
2022-12-31T01:59:50.221Z,98715.84
2022-12-31T02:02:18.501Z,98720.09
2022-12-31T02:04:48.613Z,98718.94
2022-12-31T02:07:16.598Z,98718.91
2022-12-31T02:09:45.086Z,98720.11
2022-12-31T02:12:13.978Z,98724.52
2022-12-31T02:14:49.417Z,98725.58
2022-12-31T02:17:46.640Z,98725.03
2022-12-31T02:20:46.872Z,98722.57
2022-12-31T02:23:45.635Z,98720.20
2022-12-31T02:26:33.579Z,98727.50
2022-12-31T02:29:16.646Z,98727.65
2022-12-31T02:32:04.256Z,98729.16
2022-12-31T02:34:53.027Z,98723.61
2022-12-31T02:37:24.473Z,98725.13
2022-12-31T02:39:53.116Z,98726.27
2022-12-31T02:42:21.259Z,98728.70
2022-12-31T02:45:17.405Z,98726.87
2022-12-31T02:48:30.407Z,98731.04
2022-12-31T02:51:12.585Z,98734.65
2022-12-31T02:53:58.457Z,98732.45
2022-12-31T02:56:49.599Z,98728.90
2022-12-31T02:59:52.837Z,98728.57
2022-12-31T03:02:23.989Z,98730.08
2022-12-31T03:04:55.546Z,98731.80
2022-12-31T03:07:27.088Z,98730.56
2022-12-31T03:09:56.004Z,98730.27
2022-12-31T03:12:45.800Z,98732.09
2022-12-31T03:15:43.466Z,98734.20
2022-12-31T03:18:17.178Z,98727.05
2022-12-31T03:21:06.994Z,98725.84
2022-12-31T03:23:50.286Z,98728.32
2022-12-31T03:26:18.205Z,98733.39
2022-12-31T03:28:47.984Z,98733.41
2022-12-31T03:31:16.984Z,98734.48
2022-12-31T03:33:44.970Z,98728.23
2022-12-31T03:36:15.157Z,98729.20
2022-12-31T03:38:46.400Z,98736.09
2022-12-31T03:41:17.993Z,98736.17
2022-12-31T03:43:46.063Z,98728.25
2022-12-31T03:46:14.384Z,98732.23
2022-12-31T03:48:42.549Z,98742.21
2022-12-31T03:51:10.564Z,98757.12
2022-12-31T03:53:39.098Z,98767.61
2022-12-31T03:56:07.233Z,98768.06
2022-12-31T03:58:35.410Z,98764.37
2022-12-31T04:01:03.563Z,98759.45
2022-12-31T04:03:31.591Z,98755.16
2022-12-31T04:05:59.575Z,98760.51
2022-12-31T04:08:27.649Z,98765.00
2022-12-31T04:10:55.664Z,98770.15
2022-12-31T04:13:23.731Z,98769.39
2022-12-31T04:15:52.178Z,98773.11
2022-12-31T04:18:20.427Z,98768.63
2022-12-31T04:20:48.707Z,98768.91
2022-12-31T04:23:18.393Z,98765.83
2022-12-31T04:25:46.638Z,98771.27
2022-12-31T04:28:15.055Z,98774.45
2022-12-31T04:30:44.165Z,98777.16
2022-12-31T04:33:12.218Z,98780.23
2022-12-31T04:35:40.365Z,98776.77
2022-12-31T04:38:08.749Z,98781.11
2022-12-31T04:40:56.699Z,98785.24
2022-12-31T04:43:24.904Z,98782.05
2022-12-31T04:45:52.937Z,98783.77
2022-12-31T04:48:21.746Z,98780.89
2022-12-31T04:50:49.703Z,98778.16
2022-12-31T04:53:17.829Z,98775.55
2022-12-31T04:55:46.167Z,98777.33
2022-12-31T04:58:14.222Z,98777.51
2022-12-31T05:00:42.182Z,98781.90
2022-12-31T05:03:10.388Z,98787.89
2022-12-31T05:05:40.014Z,98786.89
2022-12-31T05:08:08.139Z,98794.15
2022-12-31T05:10:36.780Z,98798.03
2022-12-31T05:13:04.728Z,98798.60
2022-12-31T05:15:33.200Z,98798.17
2022-12-31T05:18:01.516Z,98792.73
2022-12-31T05:20:30.106Z,98789.30
2022-12-31T05:22:58.208Z,98793.79
2022-12-31T05:25:26.297Z,98790.40
2022-12-31T05:27:54.434Z,98797.66
2022-12-31T05:30:23.860Z,98802.62
2022-12-31T05:32:51.986Z,98805.73
2022-12-31T05:35:19.897Z,98802.44
2022-12-31T05:37:48.231Z,98814.45
2022-12-31T05:40:16.226Z,98806.66
2022-12-31T05:42:44.582Z,98799.47
2022-12-31T05:45:15.973Z,98795.36
2022-12-31T05:47:45.245Z,98799.74
2022-12-31T05:50:18.150Z,98809.61
2022-12-31T05:52:47.759Z,98810.92
2022-12-31T05:55:16.574Z,98813.86
2022-12-31T05:57:44.685Z,98819.98
2022-12-31T06:00:13.590Z,98818.39
2022-12-31T06:02:41.738Z,98812.48
2022-12-31T06:05:10.534Z,98813.27
2022-12-31T06:07:38.633Z,98813.20
2022-12-31T06:10:07.172Z,98810.04
2022-12-31T06:12:35.668Z,98814.16
2022-12-31T06:15:04.396Z,98818.77
2022-12-31T06:17:32.637Z,98823.11
2022-12-31T06:20:01.256Z,98827.63
2022-12-31T06:22:29.540Z,98828.30
2022-12-31T06:24:57.597Z,98832.55
2022-12-31T06:27:25.702Z,98831.61
2022-12-31T06:29:53.669Z,98830.12
2022-12-31T06:32:21.611Z,98832.86
2022-12-31T06:34:49.653Z,98839.34
2022-12-31T06:37:17.809Z,98840.73
2022-12-31T06:39:45.941Z,98843.70
2022-12-31T06:42:15.240Z,98840.82
2022-12-31T06:44:44.029Z,98843.84
2022-12-31T06:47:12.018Z,98847.21
2022-12-31T06:49:40.896Z,98848.21
2022-12-31T06:52:08.977Z,98850.41
2022-12-31T06:54:37.450Z,98855.52
2022-12-31T06:57:05.876Z,98860.64
2022-12-31T06:59:34.310Z,98859.20
2022-12-31T07:02:40.796Z,98864.42
2022-12-31T07:05:50.956Z,98858.48
2022-12-31T07:08:33.917Z,98865.48
2022-12-31T07:11:23.300Z,98861.93
2022-12-31T07:13:57.542Z,98861.91
2022-12-31T07:16:54.988Z,98865.40
2022-12-31T07:19:35.883Z,98870.44
2022-12-31T07:22:04.202Z,98866.85
2022-12-31T07:24:32.618Z,98867.61
2022-12-31T07:27:20.740Z,98871.75
2022-12-31T07:30:00.714Z,98877.56
2022-12-31T07:32:44.607Z,98878.55
2022-12-31T07:35:17.262Z,98881.23
2022-12-31T07:37:58.934Z,98879.58
2022-12-31T07:40:42.122Z,98879.80
2022-12-31T07:43:22.401Z,98883.10
2022-12-31T07:46:00.150Z,98886.17
2022-12-31T07:48:29.402Z,98881.26
2022-12-31T07:50:57.852Z,98882.79
2022-12-31T07:53:26.996Z,98880.48
2022-12-31T07:55:58.279Z,98886.84
2022-12-31T07:58:29.175Z,98890.48
2022-12-31T08:00:59.798Z,98888.31
2022-12-31T08:03:37.949Z,98888.36
2022-12-31T08:06:19.439Z,98877.27
2022-12-31T08:08:53.160Z,98875.88
2022-12-31T08:11:34.483Z,98880.04
2022-12-31T08:14:03.069Z,98888.79
2022-12-31T08:16:31.426Z,98885.81
2022-12-31T08:18:59.649Z,98886.92
2022-12-31T08:21:37.199Z,98890.13
2022-12-31T08:24:14.251Z,98892.43
2022-12-31T08:26:49.521Z,98896.91
2022-12-31T08:29:28.400Z,98893.14
2022-12-31T08:32:02.475Z,98893.52
2022-12-31T08:34:49.002Z,98900.53
2022-12-31T08:37:29.110Z,98903.61
2022-12-31T08:39:57.103Z,98909.35
2022-12-31T08:42:43.674Z,98912.67
2022-12-31T08:45:19.037Z,98917.06
2022-12-31T08:48:16.741Z,98909.74
2022-12-31T08:50:45.017Z,98904.14
2022-12-31T08:53:13.225Z,98901.16
2022-12-31T08:55:43.743Z,98906.77
2022-12-31T08:58:36.246Z,98904.83
2022-12-31T09:01:07.473Z,98907.95
2022-12-31T09:03:54.120Z,98906.67
2022-12-31T09:06:42.077Z,98902.70
2022-12-31T09:09:28.387Z,98894.55
2022-12-31T09:12:41.760Z,98893.44
2022-12-31T09:15:25.977Z,98895.76
2022-12-31T09:17:54.296Z,98894.39
2022-12-31T09:20:42.763Z,98893.67
2022-12-31T09:23:13.461Z,98892.21
2022-12-31T09:25:59.381Z,98889.45
2022-12-31T09:29:11.100Z,98890.32
2022-12-31T09:32:08.406Z,98890.81
2022-12-31T09:34:47.060Z,98890.11
2022-12-31T09:37:28.346Z,98890.65
2022-12-31T09:40:01.772Z,98890.37
2022-12-31T09:42:47.938Z,98886.59
2022-12-31T09:45:26.377Z,98891.45
2022-12-31T09:48:21.036Z,98888.55
2022-12-31T09:51:27.000Z,98888.02
2022-12-31T09:54:10.141Z,98884.41
2022-12-31T09:57:22.639Z,98881.97
2022-12-31T10:00:02.848Z,98882.14
2022-12-31T10:02:46.345Z,98872.97
2022-12-31T10:05:42.583Z,98871.31
2022-12-31T10:08:43.131Z,98878.34
2022-12-31T10:11:41.301Z,98872.52
2022-12-31T10:14:47.862Z,98869.55
2022-12-31T10:17:31.250Z,98862.48
2022-12-31T10:20:15.028Z,98862.21
2022-12-31T10:22:46.407Z,98861.58
2022-12-31T10:25:39.671Z,98861.92
2022-12-31T10:28:26.401Z,98861.78
2022-12-31T10:31:35.385Z,98851.13
2022-12-31T10:34:19.845Z,98849.63
2022-12-31T10:37:11.262Z,98846.52
2022-12-31T10:39:54.294Z,98847.41
2022-12-31T10:42:59.944Z,98857.58
2022-12-31T10:45:46.727Z,98864.02
2022-12-31T10:48:36.848Z,98868.24
2022-12-31T10:51:20.873Z,98854.51
2022-12-31T10:54:21.310Z,98853.16
2022-12-31T10:57:15.227Z,98853.67
2022-12-31T11:00:01.211Z,98848.14
2022-12-31T11:02:51.732Z,98844.48
2022-12-31T11:05:47.452Z,98840.60
2022-12-31T11:08:34.554Z,98831.02
2022-12-31T11:11:28.603Z,98829.59
2022-12-31T11:14:30.464Z,98832.31
2022-12-31T11:17:16.746Z,98830.68
2022-12-31T11:20:15.232Z,98819.35
2022-12-31T11:22:54.198Z,98817.84
2022-12-31T11:25:54.779Z,98818.88
2022-12-31T11:28:35.049Z,98827.21
2022-12-31T11:31:38.368Z,98826.56
2022-12-31T11:34:41.219Z,98821.83
2022-12-31T11:37:49.499Z,98821.55
2022-12-31T11:40:43.483Z,98822.84
2022-12-31T11:43:50.508Z,98829.52
2022-12-31T11:46:31.212Z,98826.42
2022-12-31T11:49:34.705Z,98824.72
2022-12-31T11:52:21.377Z,98821.45
2022-12-31T11:55:08.501Z,98818.46
2022-12-31T11:57:39.937Z,98804.79
2022-12-31T12:00:20.469Z,98803.02
2022-12-31T12:02:58.002Z,98806.98
2022-12-31T12:05:27.507Z,98808.26
2022-12-31T12:07:56.280Z,98805.52
2022-12-31T12:10:35.698Z,98812.22
2022-12-31T12:13:25.555Z,98813.30
2022-12-31T12:15:57.281Z,98812.39
2022-12-31T12:18:38.748Z,98811.63
2022-12-31T12:21:11.052Z,98813.56
2022-12-31T12:23:40.455Z,98814.61
2022-12-31T12:26:28.695Z,98820.52
2022-12-31T12:29:01.629Z,98821.58
2022-12-31T12:31:30.716Z,98823.42
2022-12-31T12:33:58.836Z,98823.09
2022-12-31T12:36:27.024Z,98821.13
2022-12-31T12:39:06.196Z,98817.00
2022-12-31T12:41:34.352Z,98819.83
2022-12-31T12:44:14.507Z,98826.81
2022-12-31T12:46:53.118Z,98828.16
2022-12-31T12:49:27.724Z,98827.52
2022-12-31T12:52:32.945Z,98826.87
2022-12-31T12:55:39.574Z,98827.27
2022-12-31T12:58:30.071Z,98826.76
2022-12-31T13:01:10.124Z,98831.19
2022-12-31T13:04:31.819Z,98836.11
2022-12-31T13:07:09.711Z,98842.86
2022-12-31T13:09:43.714Z,98847.77
2022-12-31T13:12:11.690Z,98853.52
2022-12-31T13:14:58.312Z,98853.41
2022-12-31T13:18:14.906Z,98854.20
2022-12-31T13:20:58.191Z,98857.36
2022-12-31T13:23:42.300Z,98851.26
2022-12-31T13:26:14.671Z,98854.90
2022-12-31T13:28:46.358Z,98860.30
2022-12-31T13:31:26.521Z,98858.55
2022-12-31T13:34:01.176Z,98860.48
2022-12-31T13:36:33.075Z,98867.00
2022-12-31T13:39:05.603Z,98863.02
2022-12-31T13:41:40.610Z,98858.56
2022-12-31T13:44:08.606Z,98851.32
2022-12-31T13:46:50.271Z,98851.20
2022-12-31T13:49:50.270Z,98847.98
2022-12-31T13:52:29.888Z,98846.20
2022-12-31T13:55:03.680Z,98846.20
2022-12-31T13:57:48.283Z,98849.02
2022-12-31T14:00:21.806Z,98851.98
2022-12-31T14:03:09.200Z,98860.79
2022-12-31T14:05:49.854Z,98858.92
2022-12-31T14:08:18.047Z,98857.92
2022-12-31T14:11:07.072Z,98853.39
2022-12-31T14:13:57.764Z,98855.80
2022-12-31T14:16:45.876Z,98864.55
2022-12-31T14:19:56.493Z,98870.06
2022-12-31T14:22:49.459Z,98869.55
2022-12-31T14:25:20.233Z,98866.75
2022-12-31T14:27:51.282Z,98862.35
2022-12-31T14:30:22.806Z,98865.86
2022-12-31T14:33:28.684Z,98864.83
2022-12-31T14:36:22.908Z,98865.25
2022-12-31T14:39:10.549Z,98864.94
2022-12-31T14:42:04.912Z,98866.26
2022-12-31T14:45:25.575Z,98861.60
2022-12-31T14:48:00.327Z,98861.77
2022-12-31T14:50:31.167Z,98857.30
2022-12-31T14:52:59.174Z,98855.34
2022-12-31T14:55:34.114Z,98852.80
2022-12-31T14:58:28.584Z,98858.73
2022-12-31T15:00:59.381Z,98859.70
2022-12-31T15:03:46.069Z,98858.58
2022-12-31T15:06:23.768Z,98853.11
2022-12-31T15:09:10.534Z,98860.36
2022-12-31T15:12:06.803Z,98866.56
2022-12-31T15:15:04.558Z,98866.11
2022-12-31T15:17:48.167Z,98867.14
2022-12-31T15:20:55.813Z,98863.96
2022-12-31T15:23:42.711Z,98864.45
2022-12-31T15:26:31.612Z,98862.55
2022-12-31T15:29:06.542Z,98862.29
2022-12-31T15:31:36.623Z,98864.71
2022-12-31T15:34:20.465Z,98865.98
2022-12-31T15:36:55.114Z,98872.20
2022-12-31T15:39:43.594Z,98876.84
2022-12-31T15:42:50.126Z,98885.73
2022-12-31T15:45:28.055Z,98898.89
2022-12-31T15:48:00.921Z,98905.90
2022-12-31T15:50:30.099Z,98909.46
2022-12-31T15:53:02.833Z,98909.27
2022-12-31T15:55:48.708Z,98905.60
2022-12-31T15:58:20.804Z,98903.28
2022-12-31T16:01:10.606Z,98903.35
2022-12-31T16:03:45.085Z,98904.81
2022-12-31T16:06:15.654Z,98908.48
2022-12-31T16:08:46.334Z,98907.07
2022-12-31T16:11:16.308Z,98909.14
2022-12-31T16:13:47.396Z,98905.09
2022-12-31T16:16:28.033Z,98911.52
2022-12-31T16:18:57.370Z,98914.59
2022-12-31T16:21:34.733Z,98915.89
2022-12-31T16:24:26.312Z,98913.85
2022-12-31T16:26:59.193Z,98913.85
2022-12-31T16:29:28.060Z,98917.46
2022-12-31T16:31:56.134Z,98916.95
2022-12-31T16:34:27.000Z,98918.71
2022-12-31T16:36:56.611Z,98921.48
2022-12-31T16:39:37.828Z,98931.34
2022-12-31T16:42:17.737Z,98934.04
2022-12-31T16:44:47.517Z,98942.54
2022-12-31T16:47:31.584Z,98940.38
2022-12-31T16:50:05.524Z,98934.72
2022-12-31T16:52:42.331Z,98936.09
2022-12-31T16:55:18.393Z,98941.61
2022-12-31T16:57:49.175Z,98946.90
2022-12-31T17:00:19.125Z,98951.64
2022-12-31T17:03:10.740Z,98948.20
2022-12-31T17:06:18.888Z,98949.82
2022-12-31T17:09:05.640Z,98952.95
2022-12-31T17:11:35.572Z,98959.33
2022-12-31T17:14:13.053Z,98956.50
2022-12-31T17:17:02.826Z,98957.54
2022-12-31T17:19:37.543Z,98956.48
2022-12-31T17:22:11.747Z,98951.85
2022-12-31T17:24:40.334Z,98950.36
2022-12-31T17:27:09.612Z,98949.73
2022-12-31T17:29:37.976Z,98951.98
2022-12-31T17:32:28.130Z,98958.12
2022-12-31T17:34:56.260Z,98968.63
2022-12-31T17:37:30.088Z,98972.29
2022-12-31T17:40:49.928Z,98981.81
2022-12-31T17:42:50.697Z,98982.01
2022-12-31T17:45:21.768Z,98979.43
2022-12-31T17:47:52.564Z,98982.66
2022-12-31T17:50:25.603Z,98989.21
2022-12-31T17:53:08.716Z,98990.14
2022-12-31T17:55:37.278Z,98985.48
2022-12-31T17:58:06.940Z,98985.83
2022-12-31T18:00:36.913Z,98985.17
2022-12-31T18:03:05.039Z,98992.80
2022-12-31T18:05:33.075Z,98988.89
2022-12-31T18:08:01.197Z,98988.64
2022-12-31T18:10:32.376Z,98983.96
2022-12-31T18:13:01.835Z,98975.44
2022-12-31T18:15:29.885Z,98974.08
2022-12-31T18:17:58.014Z,98973.95
2022-12-31T18:20:26.499Z,98967.63
2022-12-31T18:22:55.915Z,98963.91
2022-12-31T18:25:24.359Z,98965.71
2022-12-31T18:27:52.926Z,98969.23
2022-12-31T18:30:21.374Z,98964.13
2022-12-31T18:32:49.655Z,98951.27
2022-12-31T18:35:57.611Z,98946.20
2022-12-31T18:38:13.890Z,98953.33
2022-12-31T18:40:46.463Z,98947.90
2022-12-31T18:43:17.251Z,98954.83
2022-12-31T18:45:46.633Z,98959.38
2022-12-31T18:48:15.750Z,98953.17
2022-12-31T18:50:44.546Z,98954.01
2022-12-31T18:53:19.340Z,98958.00
2022-12-31T18:55:54.316Z,98953.67
2022-12-31T18:58:22.837Z,98961.52
2022-12-31T19:00:52.187Z,98964.58
2022-12-31T19:03:24.044Z,98961.18
2022-12-31T19:05:52.263Z,98963.73
2022-12-31T19:08:22.468Z,98959.54
2022-12-31T19:10:52.188Z,98952.80
2022-12-31T19:13:21.063Z,98956.45
2022-12-31T19:15:53.385Z,98953.10
2022-12-31T19:18:21.502Z,98957.20
2022-12-31T19:20:52.172Z,98955.77
2022-12-31T19:23:22.600Z,98955.33
2022-12-31T19:25:50.767Z,98956.64
2022-12-31T19:28:27.219Z,98951.95
2022-12-31T19:30:55.764Z,98947.58
2022-12-31T19:33:23.724Z,98952.45
2022-12-31T19:35:51.742Z,98954.53
2022-12-31T19:38:25.327Z,98957.72
2022-12-31T19:40:53.804Z,98957.94
2022-12-31T19:43:23.652Z,98955.11
2022-12-31T19:45:52.351Z,98947.34
2022-12-31T19:48:30.317Z,98945.79
2022-12-31T19:51:00.465Z,98946.34
2022-12-31T19:53:28.876Z,98953.52
2022-12-31T19:55:56.852Z,98959.59
2022-12-31T19:58:27.006Z,98957.15
2022-12-31T20:01:02.323Z,98955.49
2022-12-31T20:03:33.212Z,98953.73
2022-12-31T20:06:06.562Z,98957.75
2022-12-31T20:08:36.178Z,98961.42
2022-12-31T20:11:19.146Z,98960.89
2022-12-31T20:13:49.609Z,98967.34
2022-12-31T20:16:20.463Z,98969.56
2022-12-31T20:18:50.648Z,98969.67
2022-12-31T20:21:24.408Z,98964.33
2022-12-31T20:23:53.907Z,98960.66
2022-12-31T20:26:24.444Z,98957.36
2022-12-31T20:28:53.350Z,98951.69
2022-12-31T20:31:24.499Z,98955.73
2022-12-31T20:33:54.369Z,98958.43
2022-12-31T20:36:23.226Z,98962.95
2022-12-31T20:38:51.468Z,98960.85
2022-12-31T20:41:22.091Z,98962.61
2022-12-31T20:43:51.504Z,98962.15
2022-12-31T20:46:23.215Z,98962.30
2022-12-31T20:48:53.839Z,98964.02
2022-12-31T20:51:23.946Z,98963.87
2022-12-31T20:53:57.418Z,98966.88
2022-12-31T20:56:30.676Z,98965.49
2022-12-31T20:58:59.374Z,98967.66
2022-12-31T21:01:41.863Z,98973.70
2022-12-31T21:04:15.812Z,98982.63
2022-12-31T21:06:44.066Z,98977.86
2022-12-31T21:09:12.042Z,98979.28
2022-12-31T21:11:58.559Z,98986.31
2022-12-31T21:14:26.509Z,98986.04
2022-12-31T21:16:54.486Z,98984.44
2022-12-31T21:19:22.555Z,98985.28
2022-12-31T21:21:51.330Z,98990.45
2022-12-31T21:24:23.877Z,99000.28
2022-12-31T21:26:55.704Z,99001.95
2022-12-31T21:29:23.752Z,99001.61
2022-12-31T21:31:51.751Z,99006.81
2022-12-31T21:34:19.938Z,99014.52
2022-12-31T21:36:48.021Z,99016.52
2022-12-31T21:39:16.091Z,99017.73
2022-12-31T21:41:52.931Z,99018.40
2022-12-31T21:44:24.721Z,99019.82
2022-12-31T21:47:35.012Z,99023.57
2022-12-31T21:50:05.426Z,99029.87
2022-12-31T21:52:36.182Z,99031.38
2022-12-31T21:55:24.039Z,99030.84
2022-12-31T21:58:24.713Z,99031.44
2022-12-31T22:00:59.535Z,99030.27
2022-12-31T22:03:28.697Z,99031.63
2022-12-31T22:06:12.362Z,99039.21
2022-12-31T22:08:42.015Z,99035.96
2022-12-31T22:11:11.789Z,99035.34
2022-12-31T22:13:40.345Z,99032.98
2022-12-31T22:16:09.565Z,99034.59
2022-12-31T22:18:39.524Z,99046.36
2022-12-31T22:21:18.900Z,99045.55
2022-12-31T22:23:50.425Z,99048.16
2022-12-31T22:26:22.107Z,99046.06
2022-12-31T22:28:51.475Z,99048.13
2022-12-31T22:31:24.480Z,99047.07
2022-12-31T22:33:53.251Z,99057.95
2022-12-31T22:36:23.330Z,99058.70
2022-12-31T22:38:55.958Z,99053.58
2022-12-31T22:41:25.688Z,99049.88
2022-12-31T22:44:03.143Z,99048.02
2022-12-31T22:46:32.783Z,99045.45
2022-12-31T22:49:02.997Z,99046.73
2022-12-31T22:51:55.909Z,99047.71
2022-12-31T22:54:21.638Z,99046.69
2022-12-31T22:56:49.652Z,99046.77
2022-12-31T22:59:17.820Z,99052.85
2022-12-31T23:01:46.239Z,99060.27
2022-12-31T23:04:15.486Z,99060.60
2022-12-31T23:06:43.647Z,99058.59
2022-12-31T23:09:34.443Z,99057.14
2022-12-31T23:12:03.815Z,99058.71
2022-12-31T23:14:50.504Z,99062.13
2022-12-31T23:17:42.776Z,99057.55
2022-12-31T23:20:36.204Z,99051.04
2022-12-31T23:23:08.680Z,99057.06
2022-12-31T23:25:49.207Z,99054.80
2022-12-31T23:28:20.577Z,99059.14
2022-12-31T23:30:51.349Z,99060.39
2022-12-31T23:33:23.929Z,99063.71
2022-12-31T23:36:05.341Z,99064.69
2022-12-31T23:38:33.587Z,99070.16
2022-12-31T23:41:12.497Z,99069.48
2022-12-31T23:43:40.553Z,99076.59
2022-12-31T23:46:08.658Z,99081.13
2022-12-31T23:48:36.681Z,99085.79
2022-12-31T23:51:05.388Z,99084.16
2022-12-31T23:53:33.925Z,99086.27
2022-12-31T23:56:14.841Z,99080.89
2022-12-31T23:58:45.686Z,99082.91
